.
WxDataArchive / Data Records for 2012-05-18
2012-05-17 May 2012 2012-05-19

Data Records for Friday, 18 May 2012

Time	Temp	Chill	HIndex	Humid	Dewpt	 Wind 	HiWind	WindDir	Rain 	Barom 
-----	----	-----	------	-----	-----	------	------	-------	-----	----- 
00:00	55.6	55.6	55.6	45	34.6	0	1	68	0.00	30.113 
00:05	55.3	55.3	55.3	45	34.3	0	0	---	0.00	30.113 
00:10	55.1	55.1	55.1	46	34.7	0	0	---	0.00	30.113 
00:15	54.8	54.8	54.8	47	35.0	0	1	68	0.00	30.115 
00:20	54.5	54.5	54.5	47	34.7	0	1	68	0.00	30.115 
00:25	54.4	54.4	54.4	47	34.6	0	1	68	0.00	30.115 
00:30	54.2	54.2	54.2	47	34.4	0	3	68	0.00	30.117 
00:35	54.2	54.2	54.2	47	34.4	0	2	68	0.00	30.117 
00:40	54.1	54.1	54.1	47	34.3	0	2	68	0.00	30.117 
00:45	54.1	54.1	54.1	47	34.3	1	2	68	0.00	30.115 
00:50	54.1	54.1	54.1	46	33.8	1	3	68	0.00	30.115 
00:55	53.9	53.9	53.9	47	34.1	0	1	68	0.00	30.115 
01:00	53.8	53.8	53.8	48	34.6	0	0	---	0.00	30.117 
01:05	53.5	53.5	53.5	48	34.3	0	0	---	0.00	30.117 
01:10	53.1	53.1	53.1	50	35.0	0	0	---	0.00	30.117 
01:15	52.6	52.6	52.6	52	35.5	0	0	---	0.00	30.117 
01:20	52.2	52.2	52.2	52	35.1	0	1	68	0.00	30.117 
01:25	51.7	51.7	51.7	52	34.6	0	0	---	0.00	30.117 
01:30	51.4	51.4	51.4	53	34.8	0	0	---	0.00	30.115 
01:35	51.3	51.3	51.3	53	34.8	0	0	---	0.00	30.115 
01:40	51.0	51.0	51.0	54	34.9	0	0	---	0.00	30.115 
01:45	50.7	50.7	50.7	54	34.7	0	0	---	0.00	30.111 
01:50	50.2	50.2	50.2	54	34.2	0	0	---	0.00	30.111 
01:55	49.9	49.9	49.9	56	34.8	0	1	68	0.00	30.111 
02:00	49.8	49.8	49.8	55	34.3	0	0	---	0.00	30.113 
02:05	49.8	49.8	49.8	56	34.7	0	0	---	0.00	30.113 
02:10	49.6	49.6	49.6	55	34.1	0	0	---	0.00	30.113 
02:15	49.5	49.5	49.5	56	34.5	0	0	---	0.00	30.113 
02:20	49.4	49.4	49.4	57	34.8	0	0	---	0.00	30.113 
02:25	49.1	49.1	49.1	57	34.5	0	0	---	0.00	30.113 
02:30	48.9	48.9	48.9	58	34.8	0	0	---	0.00	30.114 
02:35	48.8	48.8	48.8	59	35.1	0	0	---	0.00	30.114 
02:40	48.6	48.6	48.6	60	35.3	0	0	---	0.00	30.114 
02:45	48.5	48.5	48.5	61	35.7	0	0	---	0.00	30.105 
02:50	48.2	48.2	48.2	62	35.8	0	0	---	0.00	30.105 
02:55	48.2	48.2	48.2	62	35.8	0	0	---	0.00	30.105 
03:00	48.2	48.2	48.2	61	35.4	0	0	---	0.00	30.103 
03:05	48.0	48.0	48.0	62	35.6	0	0	---	0.00	30.103 
03:10	47.9	47.9	47.9	62	35.5	0	0	---	0.00	30.103 
03:15	47.9	47.9	47.9	62	35.5	0	0	---	0.00	30.101 
03:20	47.6	47.6	47.6	62	35.2	0	0	---	0.00	30.101 
03:25	47.4	47.4	47.4	63	35.4	0	0	---	0.00	30.101 
03:30	47.3	47.3	47.3	63	35.4	0	0	---	0.00	30.096 
03:35	47.1	47.1	47.1	64	35.6	0	0	---	0.00	30.096 
03:40	47.0	47.0	47.0	65	35.9	0	0	---	0.00	30.096 
03:45	46.8	46.8	46.8	66	36.0	0	0	---	0.00	30.097 
03:50	46.7	46.7	46.7	67	36.3	0	0	---	0.00	30.097 
03:55	46.5	46.5	46.5	67	36.1	0	0	---	0.00	30.097 
04:00	46.4	46.4	46.4	68	36.4	0	0	---	0.00	30.101 
04:05	46.2	46.2	46.2	68	36.2	0	0	---	0.00	30.101 
04:10	46.0	46.0	46.0	69	36.4	0	0	---	0.00	30.101 
04:15	46.0	46.0	46.0	69	36.4	0	0	---	0.00	30.100 
04:20	45.8	45.8	45.8	69	36.2	0	0	---	0.00	30.100 
04:25	45.7	45.7	45.7	69	36.1	0	0	---	0.00	30.100 
04:30	45.7	45.7	45.7	70	36.5	0	0	---	0.00	30.102 
04:35	45.5	45.5	45.5	70	36.3	0	0	---	0.00	30.102 
04:40	45.4	45.4	45.4	70	36.2	0	0	---	0.00	30.102 
04:45	45.2	45.2	45.2	70	36.0	0	0	---	0.00	30.104 
04:50	45.1	45.1	45.1	71	36.3	0	0	---	0.00	30.104 
04:55	45.1	45.1	45.1	71	36.3	0	0	---	0.00	30.104 
05:00	45.1	45.1	45.1	70	35.9	0	0	---	0.00	30.103 
05:05	45.1	45.1	45.1	69	35.5	0	0	---	0.00	30.103 
05:10	45.1	45.1	45.1	69	35.5	0	0	---	0.00	30.103 
05:15	45.1	45.1	45.1	69	35.5	0	0	---	0.00	30.102 
05:20	45.1	45.1	45.1	69	35.5	0	0	---	0.00	30.102 
05:25	44.9	44.9	44.9	69	35.4	0	0	---	0.00	30.102 
05:30	44.9	44.9	44.9	69	35.4	0	0	---	0.00	30.103 
05:35	44.9	44.9	44.9	69	35.4	0	0	---	0.00	30.103 
05:40	44.8	44.8	44.8	69	35.3	0	0	---	0.00	30.103 
05:45	44.8	44.8	44.8	70	35.6	0	0	---	0.00	30.102 
05:50	44.6	44.6	44.6	70	35.4	0	0	---	0.00	30.102 
05:55	44.5	44.5	44.5	71	35.7	0	0	---	0.00	30.102 
06:00	44.5	44.5	44.5	72	36.0	0	0	---	0.00	30.103 
06:05	44.5	44.5	44.5	72	36.0	0	0	---	0.00	30.103 
06:10	44.3	44.3	44.3	73	36.2	0	0	---	0.00	30.103 
06:15	44.2	44.2	44.2	73	36.1	0	0	---	0.00	30.105 
06:20	44.2	44.2	44.2	73	36.1	0	0	---	0.00	30.105 
06:25	44.1	44.1	44.1	73	36.0	0	0	---	0.00	30.105 
06:30	44.1	44.1	44.1	74	36.4	0	0	---	0.00	30.105 
06:35	44.1	44.1	44.1	74	36.4	0	0	---	0.00	30.105 
06:40	43.9	43.9	43.9	74	36.2	0	0	---	0.00	30.105 
06:45	43.9	43.9	43.9	75	36.5	0	0	---	0.00	30.106 
06:50	43.9	43.9	43.9	75	36.5	0	0	---	0.00	30.106 
06:55	44.1	44.1	44.1	76	37.0	0	0	---	0.00	30.106 
07:00	44.2	44.2	44.2	76	37.1	0	0	---	0.00	30.114 
07:05	44.3	44.3	44.3	75	36.9	0	0	---	0.00	30.114 
07:10	44.6	44.6	44.6	75	37.2	0	0	---	0.00	30.114 
07:15	45.1	45.1	45.1	74	37.3	0	0	---	0.00	30.120 
07:20	46.1	46.1	46.1	71	37.2	0	1	158	0.00	30.120 
07:25	47.3	47.3	47.3	69	37.7	0	1	158	0.00	30.120 
07:30	48.3	48.3	48.3	66	37.5	0	3	158	0.00	30.120 
07:35	49.5	49.5	49.5	64	37.8	0	2	158	0.00	30.120 
07:40	50.2	50.2	50.2	61	37.3	1	3	112	0.00	30.120 
07:45	50.8	50.8	50.8	61	37.8	0	2	112	0.00	30.119 
07:50	51.4	51.4	51.4	59	37.6	0	3	112	0.00	30.119 
07:55	52.0	52.0	52.0	58	37.7	1	2	112	0.00	30.119 
08:00	52.6	52.6	52.6	57	37.8	0	2	112	0.00	30.119 
08:05	53.1	53.1	53.1	56	37.8	1	2	112	0.00	30.119 
08:10	53.5	53.5	53.5	57	38.6	0	1	112	0.00	30.119 
08:15	54.1	54.1	54.1	54	37.8	0	2	112	0.00	30.124 
08:20	54.5	54.5	54.5	54	38.2	0	2	112	0.00	30.124 
08:25	55.1	55.1	55.1	52	37.8	0	2	112	0.00	30.124 
08:30	55.7	55.7	55.7	51	37.9	0	1	112	0.00	30.125 
08:35	56.2	56.2	56.2	52	38.8	0	2	112	0.00	30.125 
08:40	56.7	56.7	56.7	50	38.3	0	1	112	0.00	30.125 
08:45	57.2	57.2	57.2	49	38.2	0	2	112	0.00	30.126 
08:50	58.1	58.1	58.1	49	39.0	0	1	112	0.00	30.126 
08:55	58.7	58.7	58.7	48	39.1	0	2	112	0.00	30.126 
09:00	59.0	59.0	59.0	48	39.3	0	2	112	0.00	30.129 
09:05	59.5	59.5	59.5	47	39.3	0	2	112	0.00	30.129 
09:10	59.9	59.9	59.9	48	40.2	0	2	112	0.00	30.129 
09:15	60.5	60.5	60.5	47	40.2	1	2	112	0.00	30.135 
09:20	60.7	60.7	60.7	47	40.3	1	2	112	0.00	30.135 
09:25	61.0	61.0	61.0	45	39.5	0	2	112	0.00	30.135 
09:30	61.5	61.5	61.5	44	39.4	1	4	112	0.00	30.132 
09:35	61.6	61.6	61.6	43	38.9	1	3	68	0.00	30.132 
09:40	62.3	62.3	62.3	45	40.7	0	3	68	0.00	30.132 
09:45	62.7	62.7	62.7	43	39.9	1	3	68	0.00	30.133 
09:50	63.2	63.2	63.2	43	40.3	1	3	68	0.00	30.133 
09:55	64.2	64.2	64.2	40	39.4	0	3	68	0.00	30.133 
10:00	65.0	65.0	65.0	42	41.3	0	1	68	0.00	30.127 
10:05	65.6	65.6	65.6	41	41.3	1	4	68	0.00	30.127 
10:10	66.0	66.0	66.0	38	39.7	1	3	68	0.00	30.127 
10:15	65.8	65.8	65.8	40	40.8	1	4	68	0.00	30.131 
10:20	66.0	66.0	66.0	39	40.3	1	3	68	0.00	30.131 
10:25	66.3	66.3	66.3	40	41.2	1	4	68	0.00	30.131 
10:30	66.9	66.9	66.9	39	41.1	1	3	68	0.00	30.130 
10:35	67.6	67.6	67.6	38	41.1	1	2	68	0.00	30.130 
10:40	67.8	67.8	67.8	38	41.3	1	3	68	0.00	30.130 
10:45	68.6	68.6	68.6	35	39.8	1	4	135	0.00	30.127 
10:50	69.4	69.4	69.4	35	40.6	0	3	135	0.00	30.127 
10:55	69.9	69.9	69.9	34	40.2	1	3	135	0.00	30.127 
11:00	70.3	70.3	70.3	36	42.1	1	3	112	0.00	30.122 
11:05	70.8	70.8	70.8	38	43.9	0	3	112	0.00	30.122 
11:10	71.5	71.5	71.5	36	43.1	0	1	112	0.00	30.122 
11:15	71.8	71.8	71.8	31	39.5	1	4	112	0.00	30.113 
11:20	71.8	71.8	71.8	29	37.8	1	3	112	0.00	30.113 
11:25	72.0	72.0	72.0	30	38.9	1	3	112	0.00	30.113 
11:30	72.1	72.1	72.1	29	38.1	1	2	112	0.00	30.111 
11:35	72.1	72.1	72.1	34	42.2	1	4	68	0.00	30.111 
11:40	72.5	72.5	72.5	29	38.4	1	4	68	0.00	30.111 
11:45	72.5	72.5	72.5	30	39.3	2	5	68	0.00	30.109 
11:50	72.5	72.5	72.5	30	39.3	1	5	68	0.00	30.109 
11:55	72.3	72.3	72.3	32	40.8	1	5	90	0.00	30.109 
12:00	72.5	72.5	72.5	29	38.4	1	4	90	0.00	30.110 
12:05	73.3	73.3	73.3	30	40.0	0	2	90	0.00	30.110 
12:10	74.0	74.0	74.0	30	40.6	1	3	90	0.00	30.110 
12:15	74.2	74.2	74.2	27	38.1	1	4	90	0.00	30.108 
12:20	73.7	73.7	73.7	29	39.5	2	6	90	0.00	30.108 
12:25	73.7	73.7	73.7	28	38.6	1	3	90	0.00	30.108 
12:30	73.9	73.9	73.9	28	38.7	2	6	68	0.00	30.108 
12:35	74.4	74.4	74.4	31	41.8	1	3	112	0.00	30.108 
12:40	74.7	74.7	74.7	28	39.4	1	2	112	0.00	30.108 
12:45	75.3	75.3	76.8	27	39.0	1	4	112	0.00	30.101 
12:50	75.3	75.3	77.0	29	40.8	1	5	90	0.00	30.101 
12:55	75.3	75.3	76.8	27	39.0	1	5	90	0.00	30.101 
13:00	75.6	75.6	76.9	27	39.2	1	5	90	0.00	30.092 
13:05	76.0	76.0	77.1	28	40.5	2	9	90	0.00	30.092 
13:10	76.3	76.3	77.1	26	38.9	1	4	90	0.00	30.092 
13:15	76.7	76.7	77.3	26	39.2	1	3	112	0.00	30.091 
13:20	76.8	76.8	77.2	25	38.3	1	4	90	0.00	30.091 
13:25	76.8	76.8	77.2	25	38.3	1	4	90	0.00	30.091 
13:30	77.2	77.2	77.4	25	38.6	1	5	112	0.00	30.085 
13:35	77.0	77.0	77.3	25	38.5	2	4	90	0.00	30.085 
13:40	77.0	77.0	77.2	24	37.4	1	5	45	0.00	30.085 
13:45	77.0	77.0	77.5	28	41.4	1	3	45	0.00	30.081 
13:50	77.6	77.6	77.5	24	37.9	2	6	68	0.00	30.081 
13:55	77.6	77.6	77.6	25	39.0	3	7	112	0.00	30.081 
14:00	77.6	77.6	77.5	23	36.9	2	7	112	0.00	30.077 
14:05	77.9	77.9	77.6	23	37.1	1	5	112	0.00	30.077 
14:10	78.3	78.3	77.7	22	36.3	1	5	90	0.00	30.077 
14:15	78.6	78.6	77.8	21	35.4	2	6	90	0.00	30.074 
14:20	78.5	78.5	78.0	24	38.7	1	4	90	0.00	30.074 
14:25	79.0	79.0	78.2	24	39.1	1	3	90	0.00	30.074 
14:30	79.6	79.6	78.4	21	36.2	2	6	112	0.00	30.071 
14:35	79.8	79.8	78.5	21	36.4	1	4	112	0.00	30.071 
14:40	79.6	79.6	78.4	21	36.2	2	8	68	0.00	30.071 
14:45	79.6	79.6	78.5	22	37.4	1	5	90	0.00	30.065 
14:50	79.6	79.6	78.3	20	35.0	1	5	90	0.00	30.065 
14:55	79.8	79.8	78.4	19	33.9	1	4	112	0.00	30.065 
15:00	80.1	80.1	78.7	21	36.6	2	5	112	0.00	30.062 
15:05	80.3	80.3	78.8	21	36.8	2	6	90	0.00	30.062 
15:10	80.3	80.3	78.8	20	35.6	2	5	90	0.00	30.062 
15:15	80.3	80.3	78.7	19	34.3	2	6	112	0.00	30.063 
15:20	80.3	80.3	78.8	20	35.6	2	5	112	0.00	30.063 
15:25	80.7	80.7	79.0	20	35.9	2	5	112	0.00	30.063 
15:30	80.9	80.9	79.2	21	37.3	2	5	90	0.00	30.061 
15:35	80.9	80.9	79.1	20	36.0	1	4	90	0.00	30.061 
15:40	80.7	80.7	79.0	20	35.9	3	6	90	0.00	30.061 
15:45	80.7	80.7	79.0	20	35.9	3	10	112	0.00	30.054 
15:50	80.9	80.9	79.1	20	36.0	3	5	90	0.00	30.054 
15:55	81.1	81.1	79.3	21	37.4	1	4	90	0.00	30.054 
16:00	81.4	81.4	79.5	20	36.5	2	6	68	0.00	30.049 
16:05	81.2	81.2	79.3	19	35.0	3	7	90	0.00	30.049 
16:10	81.2	81.2	79.2	18	33.6	2	6	90	0.00	30.049 
16:15	81.6	81.6	79.5	18	34.0	1	3	90	0.00	30.048 
16:20	82.0	82.0	79.8	18	34.3	1	4	68	0.00	30.048 
16:25	82.2	82.2	80.0	20	37.1	1	5	90	0.00	30.048 
16:30	82.4	82.4	80.1	19	36.0	2	9	90	0.00	30.047 
16:35	82.4	82.4	80.1	19	36.0	1	3	112	0.00	30.047 
16:40	82.6	82.6	80.2	19	36.1	1	5	112	0.00	30.047 
16:45	82.8	82.8	80.4	20	37.6	1	5	90	0.00	30.041 
16:50	82.8	82.8	80.3	17	33.5	2	6	90	0.00	30.041 
16:55	82.6	82.6	80.2	19	36.1	1	5	112	0.00	30.041 
17:00	82.6	82.6	80.2	18	34.8	1	5	90	0.00	30.038 
17:05	82.6	82.6	80.2	19	36.1	1	4	90	0.00	30.038 
17:10	83.0	83.0	80.4	17	33.7	1	4	90	0.00	30.038 
17:15	83.0	83.0	80.5	19	36.5	1	3	112	0.00	30.035 
17:20	83.0	83.0	80.5	18	35.1	1	3	112	0.00	30.035 
17:25	82.6	82.6	80.2	17	33.4	2	7	90	0.00	30.035 
17:30	82.2	82.2	79.9	17	33.0	2	6	68	0.00	30.035 
17:35	82.0	82.0	79.7	17	32.9	1	4	112	0.00	30.035 
17:40	82.0	82.0	79.9	20	36.9	1	4	112	0.00	30.035 
17:45	81.8	81.8	79.6	18	34.1	1	5	90	0.00	30.033 
17:50	81.8	81.8	79.6	17	32.7	1	4	90	0.00	30.033 
17:55	81.8	81.8	79.7	19	35.5	1	5	90	0.00	30.033 
18:00	81.8	81.8	79.6	18	34.1	1	4	90	0.00	30.032 
18:05	81.6	81.6	79.6	19	35.3	2	7	68	0.00	30.032 
18:10	81.6	81.6	79.5	18	34.0	1	4	68	0.00	30.032 
18:15	81.4	81.4	79.4	18	33.8	2	5	68	0.00	30.031 
18:20	81.2	81.2	79.2	18	33.6	2	7	90	0.00	30.031 
18:25	81.1	81.1	79.2	18	33.6	2	4	90	0.00	30.031 
18:30	80.9	80.9	79.1	19	34.8	2	6	68	0.00	30.029 
18:35	80.9	80.9	79.1	18	33.4	2	5	68	0.00	30.029 
18:40	80.7	80.7	79.0	19	34.6	2	6	68	0.00	30.029 
18:45	80.7	80.7	79.0	20	35.9	1	3	90	0.00	30.029 
18:50	80.5	80.5	78.8	19	34.4	2	4	90	0.00	30.029 
18:55	80.5	80.5	78.8	18	33.1	1	3	112	0.00	30.029 
19:00	80.5	80.5	78.8	18	33.1	2	5	112	0.00	30.030 
19:05	80.3	80.3	78.7	19	34.3	0	1	90	0.00	30.030 
19:10	80.3	80.3	78.7	18	32.9	0	2	90	0.00	30.030 
19:15	80.1	80.1	78.5	18	32.8	1	3	90	0.00	30.023 
19:20	79.9	79.9	78.4	18	32.6	1	5	112	0.00	30.023 
19:25	79.9	79.9	78.4	18	32.6	1	4	112	0.00	30.023 
19:30	79.8	79.8	78.3	17	31.1	1	3	112	0.00	30.024 
19:35	79.8	79.8	78.3	17	31.1	0	2	112	0.00	30.024 
19:40	79.8	79.8	78.4	18	32.5	0	2	112	0.00	30.024 
19:45	79.6	79.6	78.2	17	30.9	1	2	112	0.00	30.021 
19:50	79.6	79.6	78.3	19	33.7	0	1	45	0.00	30.021 
19:55	79.2	79.2	78.0	18	32.0	0	1	45	0.00	30.021 
20:00	79.0	79.0	77.9	18	31.9	0	2	45	0.00	30.025 
20:05	78.8	78.8	77.8	19	33.0	0	1	45	0.00	30.025 
20:10	78.5	78.5	77.6	19	32.8	0	1	45	0.00	30.025 
20:15	78.1	78.1	77.5	20	33.7	0	0	---	0.00	30.022 
20:20	77.6	77.6	77.2	20	33.3	0	0	---	0.00	30.022 
20:25	77.2	77.2	77.0	20	33.0	0	0	---	0.00	30.022 
20:30	76.7	76.7	76.8	20	32.6	0	1	45	0.00	30.023 
20:35	76.3	76.3	76.7	21	33.5	0	0	---	0.00	30.023 
20:40	75.8	75.8	76.4	21	33.1	0	0	---	0.00	30.023 
20:45	75.4	75.4	76.4	22	33.9	0	0	---	0.00	30.026 
20:50	74.9	74.9	74.9	23	34.6	0	0	---	0.00	30.026 
20:55	74.2	74.2	74.2	24	35.1	0	0	---	0.00	30.026 
21:00	73.7	73.7	73.7	23	33.6	0	0	---	0.00	30.030 
21:05	73.2	73.2	73.2	25	35.3	0	0	---	0.00	30.030 
21:10	72.5	72.5	72.5	25	34.7	0	0	---	0.00	30.030 
21:15	72.0	72.0	72.0	26	35.2	0	0	---	0.00	30.033 
21:20	71.5	71.5	71.5	27	35.8	0	0	---	0.00	30.033 
21:25	70.8	70.8	70.8	27	35.2	0	0	---	0.00	30.033 
21:30	70.1	70.1	70.1	28	35.5	0	0	---	0.00	30.041 
21:35	69.4	69.4	69.4	28	34.9	0	0	---	0.00	30.041 
21:40	68.8	68.8	68.8	28	34.4	0	0	---	0.00	30.041 
21:45	68.1	68.1	68.1	28	33.8	0	0	---	0.00	30.043 
21:50	67.6	67.6	67.6	29	34.2	0	0	---	0.00	30.043 
21:55	67.1	67.1	67.1	31	35.4	0	0	---	0.00	30.043 
22:00	66.4	66.4	66.4	32	35.6	0	0	---	0.00	30.044 
22:05	66.0	66.0	66.0	35	37.6	0	0	---	0.00	30.044 
22:10	65.5	65.5	65.5	36	37.8	0	0	---	0.00	30.044 
22:15	65.0	65.0	65.0	39	39.4	0	0	---	0.00	30.045 
22:20	64.5	64.5	64.5	40	39.6	0	0	---	0.00	30.045 
22:25	64.0	64.0	64.0	41	39.8	0	0	---	0.00	30.045 
22:30	63.7	63.7	63.7	42	40.2	0	0	---	0.00	30.046 
22:35	63.2	63.2	63.2	43	40.3	0	0	---	0.00	30.046 
22:40	62.9	62.9	62.9	44	40.6	0	0	---	0.00	30.046 
22:45	62.6	62.6	62.6	46	41.5	0	0	---	0.00	30.048 
22:50	62.1	62.1	62.1	47	41.6	0	0	---	0.00	30.048 
22:55	61.6	61.6	61.6	48	41.7	0	0	---	0.00	30.048 
23:00	61.3	61.3	61.3	49	42.0	0	0	---	0.00	30.053 
23:05	61.0	61.0	61.0	49	41.7	0	0	---	0.00	30.053 
23:10	60.7	60.7	60.7	50	41.9	0	0	---	0.00	30.053 
23:15	60.5	60.5	60.5	52	42.8	0	0	---	0.00	30.054 
23:20	60.4	60.4	60.4	53	43.2	0	0	---	0.00	30.054 
23:25	60.1	60.1	60.1	55	43.9	0	0	---	0.00	30.054 
23:30	59.9	59.9	59.9	57	44.6	0	0	---	0.00	30.057 
23:35	59.6	59.6	59.6	59	45.3	0	0	---	0.00	30.057 
23:40	59.5	59.5	59.5	61	46.0	0	0	---	0.00	30.057 
23:45	59.2	59.2	59.2	62	46.2	0	0	---	0.00	30.055 
23:50	59.0	59.0	59.0	64	46.8	0	0	---	0.00	30.055 
23:55	58.7	58.7	58.7	65	47.0	0	1	45	0.00	30.055 

CoCoRaHS
IN-AL-39
A2 Web Hosting
Creative Commons License
GoDaddy
search engine by freefind advanced

loaded 2018-11-12 20:00:16 • last modified 2010-11-18 10:43:29
Privacy PolicyDisclaimer
• wx.awcolley.com is powered by PmWiki v.2002016 •
• all content (unless otherwise noted) © 2018 A W Colley